Time;durP1;ratioP1;P1;durP2;ratioP2;P2;SDS_P1;SDS_P2;PMS_P1;PMS_P2;Temp;Humidity;BMP_temperature;BMP_pressure;BME280_temperature;BME280_humidity;BME280_pressure;Samples;Min_cycle;Max_cycle;Signal;HPM_P1;HPM_P2
2022/05/15 00:04:08;;;;;;;7.35;4.28;;;;;;;14.57;70.01;96197.28;10419946;27;97772;-68
2022/05/15 00:09:13;;;;;;;6.15;4.22;;;;;;;14.58;70.24;96198.94;10430077;27;97008;-68
2022/05/15 00:14:16;;;;;;;5.40;3.83;;;;;;;14.65;68.73;96188.53;10413771;27;96915;-68
2022/05/15 00:19:18;;;;;;;6.45;3.92;;;;;;;14.72;68.91;96189.47;10431207;27;96930;-68
2022/05/15 00:24:23;;;;;;;4.88;2.95;;;;;;;14.89;68.51;96182.28;10423999;27;98026;-68
2022/05/15 00:29:26;;;;;;;4.78;3.55;;;;;;;14.82;68.10;96181.34;10436803;27;96708;-68
2022/05/15 00:34:29;;;;;;;7.13;3.72;;;;;;;14.80;68.36;96180.69;10419388;27;97430;-69
2022/05/15 00:39:33;;;;;;;7.05;4.15;;;;;;;14.55;68.64;96178.22;10433274;27;96892;-68
2022/05/15 00:44:36;;;;;;;7.67;4.63;;;;;;;14.41;69.66;96186.88;10438956;27;96933;-68
2022/05/15 00:49:39;;;;;;;8.25;4.30;;;;;;;14.21;70.23;96179.41;10434288;27;97033;-68
2022/05/15 00:54:47;;;;;;;6.68;3.97;;;;;;;14.22;70.32;96175.75;10434209;27;97100;-68
2022/05/15 00:59:57;;;;;;;7.40;3.95;;;;;;;14.33;69.87;96172.78;10431010;27;96977;-68
2022/05/15 01:05:00;;;;;;;6.97;4.40;;;;;;;14.44;68.94;96178.66;10427964;27;97802;-68
2022/05/15 01:10:06;;;;;;;6.07;4.00;;;;;;;14.37;69.03;96179.31;10431405;27;96762;-68
2022/05/15 01:15:09;;;;;;;6.90;4.00;;;;;;;14.35;68.69;96183.94;10426508;27;96876;-69
2022/05/15 01:20:16;;;;;;;5.95;4.47;;;;;;;14.31;69.47;96187.03;10408035;27;102175;-68
2022/05/15 01:25:23;;;;;;;8.07;4.00;;;;;;;14.05;70.25;96189.97;10423962;27;96840;-68
2022/05/15 01:30:26;;;;;;;5.50;3.53;;;;;;;13.84;71.33;96196.59;10411735;27;98374;-68
2022/05/15 01:35:30;;;;;;;5.20;3.40;;;;;;;13.87;70.50;96206.75;10433055;27;96955;-68
2022/05/15 01:40:39;;;;;;;6.13;3.75;;;;;;;13.84;70.31;96199.22;10431233;27;96939;-68
2022/05/15 01:45:42;;;;;;;5.45;3.30;;;;;;;13.66;71.70;96198.63;10425224;27;98657;-68
2022/05/15 01:50:45;;;;;;;5.90;3.63;;;;;;;13.58;71.69;96197.63;10418479;27;97154;-68
2022/05/15 01:55:50;;;;;;;6.00;3.90;;;;;;;13.52;71.44;96187.81;10436541;27;97080;-68
2022/05/15 02:00:52;;;;;;;5.15;3.60;;;;;;;13.55;71.10;96192.75;10412262;27;97278;-68
2022/05/15 02:05:56;;;;;;;6.38;3.65;;;;;;;13.66;70.93;96190.75;10415153;27;98492;-68
2022/05/15 02:11:00;;;;;;;7.20;3.63;;;;;;;13.66;71.20;96183.69;10436883;27;96879;-68
2022/05/15 02:16:04;;;;;;;4.53;3.70;;;;;;;13.68;70.63;96183.53;10420098;27;96843;-68
2022/05/15 02:21:07;;;;;;;5.93;4.07;;;;;;;13.59;70.89;96193.22;10419746;27;96830;-68
2022/05/15 02:26:11;;;;;;;6.80;3.83;;;;;;;13.54;71.25;96185.84;10443822;27;96869;-68
2022/05/15 02:31:14;;;;;;;4.45;3.97;;;;;;;13.19;72.08;96179.19;10436622;27;97017;-68
2022/05/15 02:36:17;;;;;;;5.97;4.03;;;;;;;13.07;72.77;96181.31;10451477;27;98292;-68
2022/05/15 02:41:21;;;;;;;5.80;3.78;;;;;;;13.00;72.93;96175.09;10423340;27;98044;-68
2022/05/15 02:46:24;;;;;;;8.83;4.60;;;;;;;13.04;72.84;96181.66;10428359;27;97096;-68
2022/05/15 02:51:27;;;;;;;7.35;4.20;;;;;;;12.94;72.79;96183.59;10435221;27;97127;-68
2022/05/15 02:56:33;;;;;;;4.97;3.50;;;;;;;12.95;71.86;96180.81;10418380;27;96960;-68
2022/05/15 03:01:39;;;;;;;6.63;3.63;;;;;;;12.93;71.64;96187.22;10417586;27;99471;-68
2022/05/15 03:06:42;;;;;;;6.45;4.07;;;;;;;13.02;71.80;96186.25;10450196;27;96820;-68
2022/05/15 03:11:46;;;;;;;4.95;3.35;;;;;;;13.08;71.20;96196.06;10441758;27;96955;-68
2022/05/15 03:16:49;;;;;;;4.87;4.10;;;;;;;12.98;71.60;96185.75;10428501;27;96892;-68
2022/05/15 03:21:52;;;;;;;5.82;3.88;;;;;;;12.92;71.92;96193.44;10436282;27;96932;-68
2022/05/15 03:26:58;;;;;;;6.10;4.35;;;;;;;12.67;72.50;96177.69;10417799;27;96863;-68
2022/05/15 03:32:01;;;;;;;5.50;4.50;;;;;;;12.42;73.36;96185.50;10415948;27;96825;-68
2022/05/15 03:37:05;;;;;;;7.05;4.68;;;;;;;12.21;74.13;96182.47;10440716;27;97493;-68
2022/05/15 03:42:10;;;;;;;5.10;4.18;;;;;;;12.10;74.49;96187.03;10437715;27;99646;-68
2022/05/15 03:47:13;;;;;;;6.38;3.85;;;;;;;12.26;73.99;96181.00;10410584;27;102452;-68
2022/05/15 03:52:17;;;;;;;4.63;3.92;;;;;;;12.33;73.87;96180.38;10416160;27;100212;-68
2022/05/15 03:57:21;;;;;;;6.22;4.28;;;;;;;12.33;73.81;96181.19;10446826;27;97580;-68
2022/05/15 04:02:23;;;;;;;5.53;4.50;;;;;;;12.22;73.79;96184.94;10414016;27;96822;-67
2022/05/15 04:07:26;;;;;;;6.90;4.40;;;;;;;12.11;74.64;96191.31;10432055;27;96748;-67
2022/05/15 04:12:30;;;;;;;6.00;4.40;;;;;;;12.07;74.84;96186.53;10438431;27;96856;-68
2022/05/15 04:17:33;;;;;;;5.50;4.50;;;;;;;11.92;75.54;96181.09;10421869;27;97032;-67
2022/05/15 04:22:36;;;;;;;5.05;4.05;;;;;;;11.95;75.46;96183.38;10428215;27;96968;-67
2022/05/15 04:27:41;;;;;;;5.35;4.20;;;;;;;11.91;75.96;96184.66;10438531;27;98615;-68
2022/05/15 04:32:45;;;;;;;8.05;4.70;;;;;;;11.95;76.08;96193.03;10412270;27;97016;-67
2022/05/15 04:37:50;;;;;;;8.25;5.55;;;;;;;11.90;76.08;96193.50;10419318;27;96936;-67
2022/05/15 04:42:54;;;;;;;5.53;4.88;;;;;;;11.95;76.19;96201.69;10418209;27;96928;-67
2022/05/15 04:47:57;;;;;;;7.03;4.33;;;;;;;12.01;75.86;96198.47;10418634;27;96874;-67
2022/05/15 04:53:00;;;;;;;5.32;4.70;;;;;;;11.94;76.72;96197.44;10432640;27;98051;-67
2022/05/15 04:58:04;;;;;;;5.47;4.35;;;;;;;12.18;76.12;96199.34;10416481;27;98184;-67
2022/05/15 05:03:07;;;;;;;5.60;4.50;;;;;;;12.33;75.64;96191.69;10419716;27;96742;-68
2022/05/15 05:08:12;;;;;;;7.13;4.22;;;;;;;12.66;74.69;96202.22;10434689;27;96848;-67
2022/05/15 05:13:16;;;;;;;4.97;4.13;;;;;;;12.92;73.57;96206.56;10428133;27;100374;-67
2022/05/15 05:18:20;;;;;;;6.40;4.30;;;;;;;13.13;73.27;96213.94;10437566;27;96955;-67
2022/05/15 05:23:23;;;;;;;5.53;4.15;;;;;;;13.23;72.88;96209.34;10408417;27;96857;-67
2022/05/15 05:28:27;;;;;;;5.45;4.22;;;;;;;13.32;72.45;96220.66;10424016;27;99074;-68
2022/05/15 05:33:30;;;;;;;7.03;4.47;;;;;;;13.51;72.78;96215.03;10410733;28;97169;-67
2022/05/15 05:38:33;;;;;;;5.53;4.03;;;;;;;13.63;72.10;96216.34;10432144;27;97026;-67
2022/05/15 05:43:37;;;;;;;5.35;4.10;;;;;;;13.86;71.26;96215.63;10426660;27;97128;-67
2022/05/15 05:48:45;;;;;;;9.10;4.07;;;;;;;14.13;71.00;96216.19;10423168;27;97321;-67
2022/05/15 05:53:49;;;;;;;4.60;3.60;;;;;;;14.22;69.94;96217.00;10434889;27;96945;-67
2022/05/15 05:58:53;;;;;;;5.50;4.38;;;;;;;14.31;70.12;96219.41;10436540;27;96898;-67
2022/05/15 06:09:16;;;;;;;6.45;4.05;;;;;;;14.77;69.48;96218.69;10424621;27;97823;-67
2022/05/15 06:14:20;;;;;;;5.57;4.15;;;;;;;14.97;68.43;96224.28;10412300;27;96753;-67
2022/05/15 06:19:23;;;;;;;7.13;4.60;;;;;;;15.10;69.25;96224.53;10411823;27;96997;-67
2022/05/15 06:24:26;;;;;;;6.97;4.63;;;;;;;15.26;68.25;96220.94;10437359;27;96786;-67
2022/05/15 06:29:31;;;;;;;6.15;4.53;;;;;;;15.47;68.08;96224.72;10423694;27;98390;-67
2022/05/15 06:34:34;;;;;;;9.90;6.53;;;;;;;15.64;68.18;96215.69;10412412;27;97413;-68
2022/05/15 06:39:38;;;;;;;6.95;5.18;;;;;;;15.80;67.36;96217.34;10439078;27;96870;-67
2022/05/15 06:44:43;;;;;;;9.15;6.20;;;;;;;15.97;67.48;96217.19;10415540;27;97885;-67
2022/05/15 06:49:45;;;;;;;7.88;5.13;;;;;;;16.14;67.12;96220.44;10428967;27;97331;-67
2022/05/15 06:54:49;;;;;;;6.57;4.97;;;;;;;16.33;66.76;96209.34;10402950;28;97117;-67
2022/05/15 06:59:54;;;;;;;6.18;4.50;;;;;;;16.48;66.34;96209.28;10423303;27;97899;-68
2022/05/15 07:04:57;;;;;;;8.50;4.60;;;;;;;16.56;66.47;96209.19;10420294;27;98674;-67
2022/05/15 07:10:00;;;;;;;7.18;4.90;;;;;;;16.66;65.81;96213.34;10416224;27;98391;-68
2022/05/15 07:15:05;;;;;;;8.80;5.00;;;;;;;16.78;65.53;96202.16;10424217;27;98620;-68
2022/05/15 07:20:09;;;;;;;5.30;4.78;;;;;;;16.93;65.35;96207.34;10430990;27;99517;-67
2022/05/15 07:25:12;;;;;;;5.93;4.73;;;;;;;17.12;65.11;96205.09;10395167;28;97689;-62
2022/05/15 07:30:16;;;;;;;4.78;4.25;;;;;;;17.29;65.01;96198.56;10412316;28;98865;-62
2022/05/15 07:35:20;;;;;;;5.97;4.50;;;;;;;17.49;64.41;96192.59;10400521;28;98992;-62
2022/05/15 07:40:29;;;;;;;4.88;4.28;;;;;;;17.62;63.85;96182.13;10411780;27;97374;-63
2022/05/15 07:45:33;;;;;;;7.25;4.68;;;;;;;17.75;62.77;96182.22;10405596;27;97819;-63
2022/05/15 07:50:38;;;;;;;5.40;4.53;;;;;;;17.89;62.73;96177.03;10409783;27;98134;-63
2022/05/15 07:55:42;;;;;;;4.28;3.88;;;;;;;18.06;62.50;96180.97;10427678;27;98639;-63
2022/05/15 08:00:46;;;;;;;4.73;4.00;;;;;;;18.26;61.20;96183.72;10445936;27;96707;-63
2022/05/15 08:11:10;;;;;;;5.70;3.80;;;;;;;18.49;60.80;96178.09;10423364;27;96898;-62
2022/05/15 08:16:14;;;;;;;6.05;4.53;;;;;;;18.54;60.39;96174.06;10418175;27;98647;-66
2022/05/15 08:26:44;;;;;;;5.53;3.47;;;;;;;18.85;59.31;96171.69;10280468;28;96908;-63
2022/05/15 08:31:48;;;;;;;7.57;3.90;;;;;;;19.06;57.97;96173.34;10286055;28;96770;-63
2022/05/15 08:36:51;;;;;;;4.60;3.30;;;;;;;19.20;57.38;96163.59;10294421;28;96856;-63
2022/05/15 08:42:04;;;;;;;4.53;3.35;;;;;;;19.33;57.08;96152.19;10295457;28;97265;-63
2022/05/15 08:47:17;;;;;;;5.75;3.30;;;;;;;19.47;56.17;96146.84;10281401;28;97027;-64
2022/05/15 08:52:27;;;;;;;4.80;3.25;;;;;;;19.61;56.15;96149.28;10283607;28;97255;-64
2022/05/15 08:57:37;;;;;;;7.07;3.30;;;;;;;19.73;55.73;96148.66;10290681;28;96933;-64
2022/05/15 09:02:44;;;;;;;5.40;3.47;;;;;;;19.90;55.66;96152.50;10359540;28;98101;-64
2022/05/15 09:07:58;;;;;;;5.93;3.75;;;;;;;20.01;54.15;96153.72;10405734;27;96903;-64
2022/05/15 09:13:09;;;;;;;4.43;2.90;;;;;;;20.10;53.66;96151.66;10404716;27;98535;-64
2022/05/15 09:18:17;;;;;;;4.15;3.50;;;;;;;20.31;53.90;96151.34;10408210;27;96840;-64
2022/05/15 09:23:25;;;;;;;4.50;3.38;;;;;;;20.54;53.08;96147.34;10382322;28;96820;-64
2022/05/15 09:28:29;;;;;;;4.63;2.90;;;;;;;20.70;52.82;96149.50;10396961;27;96843;-63
2022/05/15 09:33:37;;;;;;;5.97;3.40;;;;;;;20.87;52.01;96141.06;10392667;27;96870;-64
2022/05/15 09:38:40;;;;;;;4.72;3.00;;;;;;;21.01;52.02;96142.56;10415711;27;99193;-64
2022/05/15 09:43:52;;;;;;;4.32;3.15;;;;;;;21.06;51.25;96150.72;10415550;27;97137;-64
2022/05/15 09:49:01;;;;;;;3.65;3.28;;;;;;;21.19;51.54;96143.66;10400011;28;98534;-63
2022/05/15 09:54:04;;;;;;;6.28;3.17;;;;;;;21.44;51.13;96149.78;10420036;27;98496;-63
2022/05/15 09:59:12;;;;;;;5.40;3.38;;;;;;;21.54;50.80;96140.53;10435776;27;96694;-63
2022/05/15 10:04:24;;;;;;;6.30;3.95;;;;;;;21.54;50.16;96141.31;10439207;27;98886;-63
2022/05/15 10:09:30;;;;;;;4.85;3.58;;;;;;;21.60;49.80;96127.13;10444763;27;96774;-63
2022/05/15 10:14:40;;;;;;;6.25;3.10;;;;;;;21.83;49.72;96131.03;10434806;27;103349;-63
2022/05/15 10:19:52;;;;;;;4.82;3.38;;;;;;;22.11;49.94;96130.53;10435965;27;97197;-63
2022/05/15 10:24:58;;;;;;;5.57;3.70;;;;;;;22.28;49.45;96130.69;10415264;27;96970;-63
2022/05/15 10:30:09;;;;;;;5.70;3.80;;;;;;;22.51;49.28;96119.38;10440819;27;97114;-63
2022/05/15 10:35:16;;;;;;;4.85;3.47;;;;;;;22.74;48.46;96115.97;10434525;27;97017;-63
2022/05/15 10:40:25;;;;;;;4.32;3.58;;;;;;;22.97;48.13;96123.19;10408972;27;97201;-62
2022/05/15 10:45:35;;;;;;;4.22;3.80;;;;;;;23.26;48.29;96120.69;10425672;27;98018;-62
2022/05/15 10:50:50;;;;;;;5.40;4.07;;;;;;;23.38;47.54;96108.22;10441045;27;96947;-62
2022/05/15 11:01:30;;;;;;;4.60;3.80;;;;;;;23.58;47.13;96099.03;10421640;27;97986;-62
2022/05/15 11:06:58;;;;;;;4.50;4.10;;;;;;;23.64;47.28;96095.47;10436197;27;97081;-62
2022/05/15 11:12:23;;;;;;;5.80;4.72;;;;;;;23.90;48.28;96093.34;10434930;27;96776;-62
2022/05/15 11:17:31;;;;;;;5.57;4.30;;;;;;;24.10;47.42;96088.41;10438667;27;96777;-62
2022/05/15 11:22:41;;;;;;;4.22;3.78;;;;;;;23.99;47.46;96089.25;10419355;27;102957;-62
2022/05/15 11:27:48;;;;;;;8.02;4.95;;;;;;;23.83;47.61;96084.63;10415239;27;98870;-63
2022/05/15 11:33:03;;;;;;;5.38;3.75;;;;;;;23.93;47.87;96080.31;10427782;27;97090;-62
2022/05/15 11:38:28;;;;;;;4.82;3.75;;;;;;;24.18;47.63;96073.09;10396631;27;96862;-62
2022/05/15 11:44:00;;;;;;;4.82;3.97;;;;;;;24.28;47.53;96070.63;10410457;27;96893;-62
2022/05/15 11:49:03;;;;;;;5.25;3.70;;;;;;;24.42;46.92;96057.78;10401398;27;97765;-62
2022/05/15 11:54:08;;;;;;;7.63;3.92;;;;;;;24.46;46.73;96046.38;10405803;28;96952;-62
2022/05/15 11:59:24;;;;;;;3.95;3.55;;;;;;;24.58;45.67;96046.31;10416912;27;96836;-63
2022/05/15 12:04:59;;;;;;;4.43;3.40;;;;;;;24.72;45.82;96040.66;10413241;27;96735;-62
2022/05/15 12:10:04;;;;;;;3.38;2.90;;;;;;;24.95;45.27;96037.03;10415936;27;96895;-63
2022/05/15 12:15:13;;;;;;;5.68;3.45;;;;;;;25.12;45.48;96016.47;10401646;27;97961;-63
2022/05/15 12:20:19;;;;;;;4.32;3.40;;;;;;;25.22;44.82;96016.59;10417807;27;96996;-63
2022/05/15 12:25:30;;;;;;;8.52;4.63;;;;;;;25.31;44.98;96010.84;10441169;27;97487;-62
2022/05/15 12:30:35;;;;;;;4.55;3.17;;;;;;;25.45;44.50;96006.75;10448902;27;96983;-63
2022/05/15 12:35:41;;;;;;;5.03;3.55;;;;;;;25.51;44.32;96000.41;10438535;27;96968;-62
2022/05/15 12:40:59;;;;;;;4.63;3.20;;;;;;;25.61;43.53;95994.41;10437886;27;97918;-63
2022/05/15 12:46:02;;;;;;;4.32;2.78;;;;;;;25.99;42.78;95990.81;10417345;27;97063;-63
2022/05/15 12:51:09;;;;;;;3.45;2.97;;;;;;;26.33;41.44;95985.31;10434763;27;98884;-63
2022/05/15 12:56:17;;;;;;;4.97;3.10;;;;;;;26.42;40.65;95982.97;10437507;27;97739;-62
2022/05/15 13:01:22;;;;;;;3.97;2.80;;;;;;;26.47;40.88;95984.88;10442461;27;97082;-63
2022/05/15 13:06:32;;;;;;;6.38;2.90;;;;;;;26.59;40.22;95965.94;10442404;27;98384;-63
2022/05/15 13:11:42;;;;;;;3.92;2.90;;;;;;;26.84;40.06;95968.00;10428348;27;99807;-63
2022/05/15 13:16:51;;;;;;;3.03;2.50;;;;;;;27.00;39.08;95960.91;10437728;27;96741;-63
2022/05/15 13:21:55;;;;;;;3.33;2.80;;;;;;;27.16;39.26;95959.13;10416723;27;97140;-63
2022/05/15 13:27:02;;;;;;;4.28;2.67;;;;;;;27.21;38.96;95956.47;10439786;27;97274;-63
2022/05/15 13:32:09;;;;;;;3.15;2.83;;;;;;;27.29;39.03;95950.59;10437144;27;97192;-63
2022/05/15 13:37:27;;;;;;;4.40;3.10;;;;;;;27.44;38.38;95945.31;10442848;27;96845;-63
2022/05/15 13:48:05;;;;;;;3.45;2.50;;;;;;;27.93;37.46;95935.28;10432790;27;98710;-63
2022/05/15 13:53:22;;;;;;;4.68;2.75;;;;;;;28.26;36.68;95925.13;10414863;27;96835;-63
2022/05/15 13:58:45;;;;;;;3.67;2.85;;;;;;;28.65;36.32;95919.22;10439664;27;97098;-63
2022/05/15 14:03:50;;;;;;;3.10;2.80;;;;;;;28.85;36.01;95913.81;10414790;27;96707;-63
2022/05/15 14:09:11;;;;;;;3.22;2.67;;;;;;;28.97;35.59;95905.50;10437059;27;97782;-63
2022/05/15 14:14:16;;;;;;;4.13;2.85;;;;;;;29.20;35.65;95901.38;10435352;27;97025;-63
2022/05/15 14:19:20;;;;;;;5.03;2.85;;;;;;;30.46;34.78;95897.44;10446741;27;96984;-63
2022/05/15 14:24:23;;;;;;;3.85;2.70;;;;;;;31.63;33.18;95890.28;10451659;27;97086;-63
2022/05/15 14:29:27;;;;;;;;;;;;;;;31.33;35.27;95886.81;10440539;27;97873;-63
2022/05/15 14:34:30;;;;;;;3.30;2.85;;;;;;;30.47;35.05;95885.56;10411759;27;97731;-64
2022/05/15 14:39:33;;;;;;;3.83;2.72;;;;;;;30.50;35.67;95878.00;10419154;27;97592;-71
2022/05/15 14:44:38;;;;;;;5.07;3.03;;;;;;;31.77;34.01;95864.13;10410599;28;96948;-67
2022/05/15 14:49:43;;;;;;;6.18;3.20;;;;;;;32.89;32.50;95864.22;10406405;27;97749;-67
2022/05/15 14:54:47;;;;;;;4.53;2.55;;;;;;;33.69;30.81;95857.75;10413347;27;98456;-69
2022/05/15 14:59:53;;;;;;;6.90;2.60;;;;;;;34.48;29.49;95856.44;10427376;27;99728;-68
2022/05/15 15:04:56;;;;;;;4.05;2.15;;;;;;;34.65;29.05;95855.75;10405995;27;100520;-68
2022/05/15 15:09:59;;;;;;;4.97;2.80;;;;;;;35.10;28.50;95858.34;10392258;27;96952;-68
2022/05/15 15:15:05;;;;;;;2.80;2.40;;;;;;;35.44;27.77;95845.97;10412680;27;97091;-69
2022/05/15 15:20:09;;;;;;;3.30;2.13;;;;;;;35.67;27.15;95844.72;10401652;27;96861;-68
2022/05/15 15:25:12;;;;;;;3.80;2.50;;;;;;;35.74;26.54;95838.84;10400721;27;96858;-68
2022/05/15 15:30:17;;;;;;;3.72;2.67;;;;;;;35.68;27.26;95840.09;10402584;27;97344;-72
2022/05/15 15:35:20;;;;;;;5.60;2.78;;;;;;;35.55;26.77;95833.69;10402669;27;97341;-68
2022/05/15 15:40:24;;;;;;;2.97;2.50;;;;;;;34.98;27.67;95834.50;10424989;27;96852;-69
2022/05/15 15:45:29;;;;;;;6.20;2.95;;;;;;;34.57;27.22;95847.22;10386442;28;96963;-69
2022/05/15 15:50:32;;;;;;;4.57;2.83;;;;;;;34.93;27.76;95840.88;10406472;27;97586;-69
2022/05/15 15:55:37;;;;;;;5.13;2.80;;;;;;;35.44;26.85;95856.84;10395866;27;103517;-68
2022/05/15 16:00:44;;;;;;;4.90;2.97;;;;;;;35.60;27.22;95852.56;10443195;27;98015;-70
2022/05/15 16:05:47;;;;;;;4.65;2.72;;;;;;;35.95;26.73;95857.22;10438789;27;96806;-70
2022/05/15 16:10:51;;;;;;;4.38;3.03;;;;;;;35.77;27.56;95859.16;10423165;27;96959;-69
2022/05/15 16:15:55;;;;;;;3.90;3.00;;;;;;;35.68;27.89;95854.47;10449078;27;96881;-71
2022/05/15 16:21:01;;;;;;;5.30;3.20;;;;;;;35.57;27.30;95860.56;10406225;27;97729;-71
2022/05/15 16:26:06;;;;;;;6.53;3.28;;;;;;;35.66;27.34;95853.19;10422578;27;96825;-71
2022/05/15 16:31:12;;;;;;;3.35;2.70;;;;;;;35.51;27.77;95854.44;10444627;27;96781;-70
2022/05/15 16:36:17;;;;;;;3.47;3.10;;;;;;;35.48;28.20;95852.41;10446623;27;97049;-71
2022/05/15 16:41:21;;;;;;;4.53;3.38;;;;;;;35.72;28.12;95840.28;10438220;27;96822;-71
2022/05/15 16:46:26;;;;;;;6.80;3.55;;;;;;;35.80;28.15;95850.38;10440845;27;96718;-71
2022/05/15 16:51:29;;;;;;;3.50;3.20;;;;;;;35.48;28.06;95846.97;10442874;27;96709;-69
2022/05/15 16:56:32;;;;;;;5.70;3.45;;;;;;;35.22;28.15;95850.41;10435702;27;97107;-70
2022/05/15 17:01:37;;;;;;;4.40;3.40;;;;;;;35.28;27.68;95856.50;10439427;27;96922;-69
2022/05/15 17:06:42;;;;;;;4.53;3.38;;;;;;;35.04;28.55;95870.44;10448217;27;97154;-69
2022/05/15 17:11:48;;;;;;;5.40;3.53;;;;;;;34.99;28.39;95884.16;10423188;27;96977;-67
2022/05/15 17:16:53;;;;;;;5.28;4.07;;;;;;;34.87;28.57;95895.59;10429483;27;97003;-69
2022/05/15 17:21:57;;;;;;;7.07;3.50;;;;;;;34.71;28.84;95906.84;10404087;27;97386;-69
2022/05/15 17:27:01;;;;;;;4.90;3.80;;;;;;;34.67;29.14;95916.72;10398068;27;97949;-69
2022/05/15 17:37:32;;;;;;;7.13;4.00;;;;;;;33.50;30.37;95930.97;10383566;28;97297;-69
2022/05/15 17:42:38;;;;;;;8.30;4.43;;;;;;;32.57;31.63;95929.97;10397989;27;98063;-69
2022/05/15 17:47:43;;;;;;;4.85;4.25;;;;;;;31.38;32.88;95928.09;10399401;27;96878;-68
2022/05/15 17:52:46;;;;;;;4.60;3.72;;;;;;;30.38;34.08;95929.56;10420095;27;98867;-69
2022/05/15 17:57:51;;;;;;;5.97;4.32;;;;;;;29.79;35.03;95937.47;10417457;28;96828;-68
2022/05/15 18:02:56;;;;;;;5.22;4.53;;;;;;;29.48;35.61;95952.94;10430274;27;96833;-68
2022/05/15 18:08:00;;;;;;;7.40;4.88;;;;;;;29.05;36.42;95960.59;10428953;27;97303;-69
2022/05/15 18:13:05;;;;;;;7.00;5.00;;;;;;;28.74;37.55;95960.59;10453600;27;97103;-67
2022/05/15 18:18:10;;;;;;;6.55;4.93;;;;;;;28.35;38.81;95963.84;10440542;27;96726;-67
2022/05/15 18:23:13;;;;;;;6.90;4.85;;;;;;;27.90;39.42;95957.31;10423572;27;96967;-67
2022/05/15 18:28:18;;;;;;;7.28;4.47;;;;;;;27.42;40.56;95965.41;10448101;27;97092;-67
2022/05/15 18:33:24;;;;;;;5.82;4.78;;;;;;;26.92;41.18;95980.94;10429820;27;97250;-67
2022/05/15 18:38:27;;;;;;;10.15;5.20;;;;;;;26.53;41.68;95986.53;10426511;27;97008;-67
2022/05/15 18:43:32;;;;;;;8.55;5.00;;;;;;;26.34;42.20;95992.25;10426554;27;96737;-67
2022/05/15 18:48:36;;;;;;;8.88;5.07;;;;;;;25.88;43.35;96002.47;10423232;27;97510;-67
2022/05/15 18:58:59;;;;;;;7.40;5.00;;;;;;;24.85;46.37;96009.13;10442845;27;98560;-67
2022/05/15 19:04:04;;;;;;;7.65;4.45;;;;;;;24.55;46.38;96029.97;10431235;27;97062;-67
2022/05/15 19:09:07;;;;;;;6.35;3.72;;;;;;;24.67;44.98;96044.06;10449629;27;96761;-67
2022/05/15 19:14:11;;;;;;;3.42;2.95;;;;;;;24.39;44.78;96044.91;10428354;27;96807;-67
2022/05/15 19:19:15;;;;;;;;;;;;;;;24.14;44.61;96038.06;10441391;27;96848;-67
2022/05/15 19:24:18;;;;;;;7.77;3.63;;;;;;;23.94;45.10;96057.91;10426182;27;97003;-67
2022/05/15 19:29:21;;;;;;;5.00;3.10;;;;;;;23.55;45.61;96046.19;10435879;27;96863;-66
2022/05/15 19:34:26;;;;;;;5.28;3.25;;;;;;;23.29;46.06;96064.31;10426754;27;97520;-66
2022/05/15 19:39:29;;;;;;;4.40;3.53;;;;;;;23.06;47.08;96069.59;10432657;27;96827;-67
2022/05/15 19:44:32;;;;;;;6.47;3.03;;;;;;;22.75;47.53;96076.84;10420583;27;97167;-67
2022/05/15 19:49:38;;;;;;;8.80;3.28;;;;;;;22.57;47.89;96081.19;10443005;27;97045;-67
2022/05/15 19:54:41;;;;;;;5.65;3.88;;;;;;;22.57;46.92;96091.03;10403988;27;96776;-67
2022/05/15 19:59:44;;;;;;;5.80;3.13;;;;;;;22.65;46.63;96088.06;10434435;27;97100;-67
2022/05/15 20:15:49;;;;;;;4.88;2.95;;;;;;;22.84;45.52;96104.78;10406446;27;97178;-67
2022/05/15 20:20:54;;;;;;;4.13;3.45;;;;;;;22.84;45.66;96110.13;10441293;27;96844;-67
2022/05/15 20:25:57;;;;;;;5.05;2.90;;;;;;;22.81;45.44;96127.34;10427938;27;98123;-67
2022/05/15 20:31:00;;;;;;;4.07;2.67;;;;;;;22.81;45.16;96119.34;10449931;27;97580;-66
2022/05/15 20:36:06;;;;;;;4.72;2.78;;;;;;;22.57;45.98;96136.31;10416945;27;98275;-69
2022/05/15 20:41:09;;;;;;;4.55;2.40;;;;;;;22.29;47.81;96126.22;10430865;27;98400;-69
2022/05/15 20:46:12;;;;;;;3.33;2.78;;;;;;;22.05;49.82;96136.72;10411816;27;96985;-69
2022/05/15 20:51:18;;;;;;;3.83;2.60;;;;;;;21.87;51.40;96122.38;10415178;27;97457;-68
2022/05/15 20:56:21;;;;;;;5.28;2.72;;;;;;;21.67;51.61;96113.81;10407193;27;96900;-68
2022/05/15 21:01:24;;;;;;;4.82;2.90;;;;;;;20.98;52.30;96116.47;10404672;27;96871;-68
2022/05/15 21:06:28;;;;;;;5.57;2.95;;;;;;;20.77;53.07;96119.47;10404221;27;96693;-68
2022/05/15 21:11:32;;;;;;;6.25;3.00;;;;;;;20.57;53.69;96115.88;10421930;27;96983;-68
2022/05/15 21:16:35;;;;;;;5.22;2.67;;;;;;;20.53;54.49;96124.50;10399236;27;98675;-69
2022/05/15 21:21:40;;;;;;;5.17;2.93;;;;;;;20.43;55.42;96126.81;10403033;28;96911;-68
2022/05/15 21:26:43;;;;;;;3.30;2.83;;;;;;;20.05;55.60;96125.75;10410286;27;96844;-69
2022/05/15 21:31:46;;;;;;;4.22;2.83;;;;;;;19.59;57.15;96129.31;10428878;27;97349;-68
2022/05/15 21:36:52;;;;;;;;;;;;;;;19.35;55.98;96138.72;10403056;27;97491;-68
2022/05/15 21:47:22;;;;;;;3.60;3.00;;;;;;;19.04;57.03;96143.63;10407097;27;98240;-68
2022/05/15 21:52:26;;;;;;;3.90;3.15;;;;;;;19.28;57.53;96137.91;10430383;27;96790;-68
2022/05/15 21:57:29;;;;;;;5.03;3.47;;;;;;;18.79;57.61;96146.00;10408850;27;96789;-68
2022/05/15 22:02:33;;;;;;;6.47;3.72;;;;;;;18.32;59.72;96155.66;10400227;27;97911;-69
2022/05/15 22:07:37;;;;;;;;;;;;;;;18.48;58.07;96154.50;10385357;27;97320;-68
2022/05/15 22:12:40;;;;;;;7.65;3.80;;;;;;;18.41;59.60;96159.78;10387031;27;96986;-68
2022/05/15 22:17:43;;;;;;;5.00;3.35;;;;;;;18.62;59.75;96160.63;10396732;28;97094;-68
2022/05/15 22:22:47;;;;;;;4.57;3.53;;;;;;;18.56;59.70;96166.72;10398036;28;96781;-68
2022/05/15 22:27:55;;;;;;;5.65;3.78;;;;;;;18.19;60.37;96166.22;10385748;27;96862;-68
2022/05/15 22:32:58;;;;;;;4.43;3.35;;;;;;;18.31;60.89;96159.34;10393408;28;98324;-68
2022/05/15 22:38:05;;;;;;;6.78;3.55;;;;;;;18.13;61.41;96163.34;10411837;27;97280;-68
2022/05/15 22:43:08;;;;;;;7.22;4.55;;;;;;;17.71;62.36;96164.31;10408022;27;96860;-68
2022/05/15 22:48:11;;;;;;;4.70;3.70;;;;;;;17.30;63.52;96165.88;10412806;27;101790;-68
2022/05/15 22:53:16;;;;;;;7.68;4.07;;;;;;;17.35;63.03;96168.75;10413482;27;100548;-68
2022/05/15 22:58:18;;;;;;;;;;;;;;;17.62;60.76;96170.75;10410015;28;98474;-69
2022/05/15 23:03:21;;;;;;;4.60;4.07;;;;;;;17.47;61.64;96178.78;10435110;27;98765;-68
2022/05/15 23:08:25;;;;;;;5.88;3.95;;;;;;;17.54;62.00;96179.63;10411714;27;98682;-68
2022/05/15 23:13:28;;;;;;;6.28;4.15;;;;;;;17.29;62.96;96177.44;10445064;27;96738;-69
2022/05/15 23:18:31;;;;;;;8.80;4.30;;;;;;;17.02;63.56;96180.84;10404495;27;97063;-68
2022/05/15 23:23:36;;;;;;;8.40;4.15;;;;;;;16.88;63.81;96186.00;10437727;27;96969;-68
2022/05/15 23:28:39;;;;;;;6.22;3.80;;;;;;;16.87;63.24;96188.84;10424538;27;97795;-68
2022/05/15 23:33:42;;;;;;;4.65;3.88;;;;;;;16.89;63.50;96195.56;10428103;27;97208;-68
2022/05/15 23:38:46;;;;;;;6.25;4.50;;;;;;;16.72;63.81;96186.22;10427592;27;96836;-69
2022/05/15 23:43:49;;;;;;;6.35;4.53;;;;;;;16.70;63.58;96196.97;10431040;27;98676;-67
2022/05/15 23:48:52;;;;;;;6.47;4.03;;;;;;;16.54;64.46;96205.94;10412445;27;96906;-68
2022/05/15 23:53:56;;;;;;;7.30;4.28;;;;;;;16.46;64.60;96206.03;10430383;27;97130;-68
2022/05/15 23:58:59;;;;;;;6.65;4.70;;;;;;;16.58;64.36;96207.19;10414411;27;98808;-68
